createdAt,value
2017-10-10T00:01:37.525Z,0
2017-10-10T00:02:38.134Z,0
2017-10-10T00:03:38.743Z,0
2017-10-10T00:04:39.365Z,0
2017-10-10T00:05:39.970Z,0
2017-10-10T00:06:40.577Z,0
2017-10-10T00:07:41.186Z,0
2017-10-10T00:08:41.798Z,0
2017-10-10T00:09:42.395Z,0
2017-10-10T00:10:42.993Z,0
2017-10-10T00:11:43.600Z,0
2017-10-10T00:12:44.209Z,0
2017-10-10T00:13:44.817Z,0
2017-10-10T00:14:45.426Z,0
2017-10-10T00:15:46.023Z,0
2017-10-10T00:16:46.630Z,0
2017-10-10T00:17:47.238Z,0
2017-10-10T00:18:47.841Z,0
2017-10-10T00:19:48.444Z,0
2017-10-10T00:20:49.050Z,0
2017-10-10T00:21:49.663Z,0
2017-10-10T00:22:50.269Z,0
2017-10-10T00:23:50.875Z,0
2017-10-10T00:24:51.476Z,0
2017-10-10T00:25:52.076Z,0
2017-10-10T00:26:52.679Z,0
2017-10-10T00:27:53.274Z,0
2017-10-10T00:28:53.883Z,0
2017-10-10T00:29:54.488Z,0
2017-10-10T00:30:55.103Z,0
2017-10-10T00:31:55.706Z,0
2017-10-10T00:32:56.314Z,0
2017-10-10T00:33:56.924Z,0
2017-10-10T00:34:57.525Z,0
2017-10-10T00:35:58.132Z,0
2017-10-10T00:36:58.739Z,0
2017-10-10T00:37:59.345Z,0
2017-10-10T00:38:59.944Z,0
2017-10-10T00:40:00.541Z,0
2017-10-10T00:41:01.153Z,0
2017-10-10T00:42:01.757Z,0
2017-10-10T00:43:02.354Z,0
2017-10-10T00:44:02.972Z,0
2017-10-10T00:45:03.584Z,0
2017-10-10T00:46:04.191Z,0
2017-10-10T00:47:04.797Z,0
2017-10-10T00:48:05.431Z,0
2017-10-10T00:49:06.040Z,0
2017-10-10T00:50:06.650Z,0
2017-10-10T00:51:07.259Z,0
2017-10-10T00:52:07.866Z,0
2017-10-10T00:53:08.468Z,0
2017-10-10T00:54:09.078Z,0
2017-10-10T00:55:09.674Z,0
2017-10-10T00:56:10.285Z,0
2017-10-10T00:57:10.895Z,0
2017-10-10T00:58:11.501Z,0
2017-10-10T00:59:12.112Z,0
2017-10-10T01:00:12.707Z,0
2017-10-10T01:01:13.319Z,0
2017-10-10T01:02:13.933Z,0
2017-10-10T01:03:14.520Z,0
2017-10-10T01:04:15.127Z,0
2017-10-10T01:05:15.725Z,0
2017-10-10T01:06:16.340Z,0
2017-10-10T01:07:16.944Z,0
2017-10-10T01:08:17.564Z,0
2017-10-10T01:09:18.163Z,0
2017-10-10T01:10:18.775Z,0
2017-10-10T01:11:19.392Z,0
2017-10-10T01:12:20.006Z,0
2017-10-10T01:13:20.610Z,0
2017-10-10T01:14:21.219Z,0
2017-10-10T01:15:21.830Z,0
2017-10-10T01:16:22.433Z,0
2017-10-10T01:17:23.031Z,0
2017-10-10T01:18:23.641Z,0
2017-10-10T01:19:24.248Z,0
2017-10-10T01:20:24.859Z,0
2017-10-10T01:21:25.482Z,0
2017-10-10T01:22:26.065Z,0
2017-10-10T01:23:26.668Z,0
2017-10-10T01:24:27.266Z,0
2017-10-10T01:25:27.873Z,0
2017-10-10T01:26:28.485Z,0
2017-10-10T01:27:29.119Z,0
2017-10-10T01:28:29.704Z,0
2017-10-10T01:29:30.318Z,0
2017-10-10T01:30:30.930Z,0
2017-10-10T01:31:31.522Z,0
2017-10-10T01:32:32.135Z,0
2017-10-10T01:33:32.728Z,0
2017-10-10T01:34:33.340Z,0
2017-10-10T01:35:33.942Z,0
2017-10-10T01:36:34.545Z,0
2017-10-10T01:37:35.152Z,0
2017-10-10T01:38:35.752Z,0
2017-10-10T01:39:36.361Z,0
2017-10-10T01:40:36.963Z,0
2017-10-10T01:41:37.571Z,0
2017-10-10T01:42:38.177Z,0
2017-10-10T01:43:38.786Z,0
2017-10-10T01:44:39.396Z,0
2017-10-10T01:45:40.004Z,0
2017-10-10T01:46:40.610Z,0
2017-10-10T01:47:41.224Z,0
2017-10-10T01:48:41.830Z,0
2017-10-10T01:49:42.440Z,0
2017-10-10T01:50:43.045Z,0
2017-10-10T01:51:43.659Z,0
2017-10-10T01:52:44.257Z,0
2017-10-10T01:53:44.904Z,0
2017-10-10T01:54:45.513Z,0
2017-10-10T01:55:46.112Z,0
2017-10-10T01:56:46.716Z,0
2017-10-10T01:57:47.328Z,0
2017-10-10T01:58:47.939Z,0
2017-10-10T01:59:48.547Z,0
2017-10-10T02:00:49.153Z,0
2017-10-10T02:01:49.762Z,0
2017-10-10T02:02:50.362Z,0
2017-10-10T02:03:50.963Z,0
2017-10-10T02:04:51.559Z,0
2017-10-10T02:05:52.156Z,0
2017-10-10T02:06:52.767Z,0
2017-10-10T02:07:53.443Z,0
2017-10-10T02:08:54.036Z,0
2017-10-10T02:09:54.669Z,0
2017-10-10T02:10:55.268Z,0
2017-10-10T02:11:55.863Z,0
2017-10-10T02:12:56.471Z,0
2017-10-10T02:13:57.082Z,0
2017-10-10T02:14:57.693Z,0
2017-10-10T02:15:58.297Z,0
2017-10-10T02:16:58.941Z,0
2017-10-10T02:17:59.562Z,0
2017-10-10T02:19:00.145Z,0
2017-10-10T02:20:00.751Z,0
2017-10-10T02:21:01.357Z,0
2017-10-10T02:22:01.962Z,0
2017-10-10T02:23:02.578Z,0
2017-10-10T02:24:03.175Z,0
2017-10-10T02:25:03.782Z,0
2017-10-10T02:26:04.390Z,0
2017-10-10T02:27:04.994Z,0
2017-10-10T02:28:05.595Z,0
2017-10-10T02:29:06.201Z,0
2017-10-10T02:30:06.800Z,0
2017-10-10T02:31:07.421Z,0
2017-10-10T02:32:08.006Z,0
2017-10-10T02:33:08.602Z,0
2017-10-10T02:34:09.213Z,0
2017-10-10T02:35:09.817Z,0
2017-10-10T02:36:10.444Z,0
2017-10-10T02:37:11.042Z,0
2017-10-10T02:38:11.650Z,0
2017-10-10T02:39:12.264Z,0
2017-10-10T02:40:12.891Z,0
2017-10-10T02:41:13.469Z,0
2017-10-10T02:42:14.075Z,0
2017-10-10T02:43:14.674Z,0
2017-10-10T02:44:15.286Z,0
2017-10-10T02:45:15.894Z,0
2017-10-10T02:46:16.492Z,0
2017-10-10T02:47:17.100Z,0
2017-10-10T02:48:17.705Z,0
2017-10-10T02:49:18.314Z,0
2017-10-10T02:50:18.923Z,0
2017-10-10T02:51:19.530Z,0
2017-10-10T02:52:20.138Z,0
2017-10-10T02:53:20.746Z,0
2017-10-10T02:54:21.354Z,0
2017-10-10T02:55:21.958Z,0
2017-10-10T02:56:22.571Z,0
2017-10-10T02:57:23.165Z,0
2017-10-10T02:58:23.776Z,0
2017-10-10T02:59:24.370Z,0
2017-10-10T03:00:24.986Z,0
2017-10-10T03:01:25.592Z,0
2017-10-10T03:02:26.198Z,0
2017-10-10T03:03:26.807Z,0
2017-10-10T03:04:27.408Z,0
2017-10-10T03:05:28.016Z,0
2017-10-10T03:06:28.615Z,0
2017-10-10T03:07:29.229Z,0
2017-10-10T03:08:29.833Z,0
2017-10-10T03:09:30.439Z,0
2017-10-10T03:10:31.038Z,0
2017-10-10T03:11:31.633Z,0
2017-10-10T03:12:32.236Z,0
2017-10-10T03:13:32.866Z,0
2017-10-10T03:14:33.448Z,0
2017-10-10T03:15:34.058Z,0
2017-10-10T03:16:34.667Z,0
2017-10-10T03:17:35.265Z,0
2017-10-10T03:18:35.874Z,0
2017-10-10T03:19:36.481Z,0
2017-10-10T03:20:37.089Z,0
2017-10-10T03:21:37.687Z,0
2017-10-10T03:22:38.294Z,0
2017-10-10T03:23:38.902Z,0
2017-10-10T03:24:39.500Z,0
2017-10-10T03:25:40.119Z,0
2017-10-10T03:26:40.708Z,0
2017-10-10T03:27:41.315Z,0
2017-10-10T03:28:41.923Z,0
2017-10-10T03:29:42.530Z,0
2017-10-10T03:30:43.131Z,0
2017-10-10T03:31:43.755Z,0
2017-10-10T03:32:44.332Z,0
2017-10-10T03:33:44.944Z,0
2017-10-10T03:34:45.548Z,0
2017-10-10T03:35:46.145Z,0
2017-10-10T03:36:46.754Z,0
2017-10-10T03:37:47.382Z,0
2017-10-10T03:38:47.974Z,0
2017-10-10T03:39:48.582Z,0
2017-10-10T03:40:49.188Z,0
2017-10-10T03:41:49.797Z,0
2017-10-10T03:42:50.409Z,0
2017-10-10T03:43:51.011Z,0
2017-10-10T03:44:51.615Z,0
2017-10-10T03:45:52.215Z,0
2017-10-10T03:46:52.809Z,0
2017-10-10T03:47:53.408Z,0
2017-10-10T03:48:54.004Z,0
2017-10-10T03:49:54.617Z,0
2017-10-10T03:50:55.218Z,0
2017-10-10T03:51:55.824Z,0
2017-10-10T03:52:56.423Z,0
2017-10-10T03:53:57.029Z,0
2017-10-10T03:54:57.640Z,0
2017-10-10T03:55:58.234Z,0
2017-10-10T03:56:58.837Z,0
2017-10-10T03:57:59.431Z,0
2017-10-10T03:59:00.043Z,0
2017-10-10T04:00:00.652Z,0
2017-10-10T04:01:01.254Z,0
2017-10-10T04:02:01.858Z,0
2017-10-10T04:03:02.471Z,0
2017-10-10T04:04:03.062Z,0
2017-10-10T04:05:03.673Z,0
2017-10-10T04:06:04.287Z,0
2017-10-10T04:07:04.885Z,0
2017-10-10T04:08:05.498Z,0
2017-10-10T04:09:06.103Z,0
2017-10-10T04:10:06.711Z,0
2017-10-10T04:11:07.318Z,0
2017-10-10T04:12:07.928Z,0
2017-10-10T04:13:08.534Z,0
2017-10-10T04:14:09.143Z,0
2017-10-10T04:15:09.755Z,0
2017-10-10T04:16:10.363Z,0
2017-10-10T04:17:10.969Z,0
2017-10-10T04:18:11.580Z,0
2017-10-10T04:19:12.187Z,0
2017-10-10T04:20:12.794Z,0
2017-10-10T04:21:13.399Z,0
2017-10-10T04:22:14.010Z,0
2017-10-10T04:23:14.712Z,0
2017-10-10T04:24:15.319Z,0
2017-10-10T04:25:15.926Z,0
2017-10-10T04:26:16.525Z,0
2017-10-10T04:27:17.134Z,0
2017-10-10T04:28:17.739Z,0
2017-10-10T04:29:18.339Z,0
2017-10-10T04:30:18.947Z,0
2017-10-10T04:31:19.543Z,0
2017-10-10T04:32:20.142Z,0
2017-10-10T04:33:20.744Z,0
2017-10-10T04:34:21.347Z,0
2017-10-10T04:35:21.954Z,0
2017-10-10T04:36:22.553Z,0
2017-10-10T04:37:23.168Z,0
2017-10-10T04:38:23.774Z,0
2017-10-10T04:39:24.371Z,0
2017-10-10T04:40:24.967Z,0
2017-10-10T04:41:25.577Z,0
2017-10-10T04:42:26.172Z,0
2017-10-10T04:43:26.772Z,0
2017-10-10T04:44:27.375Z,0
2017-10-10T04:45:27.986Z,0
2017-10-10T04:46:28.594Z,0
2017-10-10T04:47:29.229Z,0
2017-10-10T04:48:29.824Z,0
2017-10-10T04:49:30.430Z,0
2017-10-10T04:50:31.035Z,0
2017-10-10T04:51:31.647Z,0
2017-10-10T04:52:32.250Z,0
2017-10-10T04:53:32.860Z,0
2017-10-10T04:54:33.466Z,0
2017-10-10T04:55:34.077Z,0
2017-10-10T04:56:34.685Z,0
2017-10-10T04:57:35.291Z,0
2017-10-10T04:58:35.898Z,0
2017-10-10T04:59:36.507Z,0
2017-10-10T05:00:37.118Z,0
2017-10-10T05:01:37.713Z,0
2017-10-10T05:02:38.326Z,0
2017-10-10T05:03:38.987Z,0
2017-10-10T05:04:39.592Z,0
2017-10-10T05:05:40.210Z,0
2017-10-10T05:06:40.798Z,0
2017-10-10T05:07:41.421Z,0
2017-10-10T05:08:42.033Z,0
2017-10-10T05:09:42.710Z,0
2017-10-10T05:10:43.315Z,0
2017-10-10T05:11:43.922Z,0
2017-10-10T05:12:44.532Z,0
2017-10-10T05:13:45.139Z,0
2017-10-10T05:14:45.748Z,0
2017-10-10T05:15:46.360Z,0
2017-10-10T05:16:46.966Z,0
2017-10-10T05:17:47.578Z,0
2017-10-10T05:18:48.183Z,0
2017-10-10T05:19:48.788Z,0
2017-10-10T05:20:49.395Z,0
2017-10-10T05:21:50.003Z,0
2017-10-10T05:22:50.607Z,0
2017-10-10T05:23:51.224Z,0
2017-10-10T05:24:51.816Z,0
2017-10-10T05:25:52.421Z,0
2017-10-10T05:26:53.027Z,0
2017-10-10T05:27:53.624Z,0
2017-10-10T05:28:54.233Z,0
2017-10-10T05:29:54.842Z,0
2017-10-10T05:30:55.450Z,0
2017-10-10T05:31:56.060Z,0
2017-10-10T05:32:56.675Z,0
2017-10-10T05:33:57.281Z,0
2017-10-10T05:34:57.891Z,0
2017-10-10T05:35:58.500Z,0
2017-10-10T05:36:59.099Z,0
2017-10-10T05:37:59.709Z,0
2017-10-10T05:39:00.321Z,0
2017-10-10T05:40:00.963Z,0
2017-10-10T05:41:01.575Z,0
2017-10-10T05:42:02.185Z,0
2017-10-10T05:43:02.814Z,0
2017-10-10T05:44:03.404Z,0
2017-10-10T05:45:03.998Z,0
2017-10-10T05:46:04.609Z,0
2017-10-10T05:47:05.218Z,0
2017-10-10T05:48:05.855Z,0
2017-10-10T05:49:06.455Z,0
2017-10-10T05:50:07.064Z,5
2017-10-10T05:51:07.681Z,5
2017-10-10T05:52:08.279Z,5
2017-10-10T05:53:08.880Z,5
2017-10-10T05:54:09.492Z,5
2017-10-10T05:55:10.093Z,5
2017-10-10T05:56:10.691Z,5
2017-10-10T05:57:11.305Z,5
2017-10-10T05:58:11.912Z,5
2017-10-10T05:59:12.526Z,10
2017-10-10T06:00:13.139Z,10
2017-10-10T06:01:13.751Z,10
2017-10-10T06:02:14.368Z,10
2017-10-10T06:03:14.979Z,15
2017-10-10T06:04:15.593Z,15
2017-10-10T06:05:16.208Z,15
2017-10-10T06:06:16.817Z,15
2017-10-10T06:07:17.417Z,15
2017-10-10T06:08:18.016Z,15
2017-10-10T06:09:18.629Z,15
2017-10-10T06:10:19.241Z,15
2017-10-10T06:11:19.852Z,20
2017-10-10T06:12:20.466Z,20
2017-10-10T06:13:21.082Z,20
2017-10-10T06:14:21.697Z,20
2017-10-10T06:15:22.311Z,25
2017-10-10T06:16:22.924Z,25
2017-10-10T06:17:23.536Z,30
2017-10-10T06:18:24.154Z,30
2017-10-10T06:19:24.751Z,30
2017-10-10T06:20:25.353Z,35
2017-10-10T06:21:25.973Z,40
2017-10-10T06:22:26.573Z,40
2017-10-10T06:23:27.193Z,45
2017-10-10T06:24:27.797Z,50
2017-10-10T06:25:28.410Z,45
2017-10-10T06:26:29.083Z,45
2017-10-10T06:27:29.669Z,45
2017-10-10T06:28:30.260Z,55
2017-10-10T06:29:30.876Z,70
2017-10-10T06:30:31.486Z,70
2017-10-10T06:31:32.080Z,70
2017-10-10T06:32:32.682Z,70
2017-10-10T06:33:33.296Z,70
2017-10-10T06:34:33.899Z,65
2017-10-10T06:35:34.510Z,70
2017-10-10T06:36:35.124Z,65
2017-10-10T06:37:35.739Z,65
2017-10-10T06:38:36.351Z,70
2017-10-10T06:39:36.963Z,70
2017-10-10T06:40:37.569Z,80
2017-10-10T06:41:38.172Z,85
2017-10-10T06:42:38.779Z,85
2017-10-10T06:43:39.376Z,80
2017-10-10T06:44:39.978Z,65
2017-10-10T06:45:40.592Z,60
2017-10-10T06:46:41.204Z,60
2017-10-10T06:47:41.807Z,65
2017-10-10T06:48:42.415Z,65
2017-10-10T06:49:43.024Z,65
2017-10-10T06:50:43.635Z,65
2017-10-10T06:51:44.266Z,65
2017-10-10T06:52:44.861Z,65
2017-10-10T06:53:45.465Z,70
2017-10-10T06:54:46.087Z,65
2017-10-10T06:55:46.683Z,70
2017-10-10T06:56:47.286Z,75
2017-10-10T06:57:47.897Z,80
2017-10-10T06:58:48.500Z,80
2017-10-10T06:59:49.121Z,70
2017-10-10T07:00:49.733Z,75
2017-10-10T07:01:50.347Z,90
2017-10-10T07:02:50.950Z,100
2017-10-10T07:03:51.571Z,100
2017-10-10T07:04:52.178Z,110
2017-10-10T07:05:52.782Z,120
2017-10-10T07:06:53.394Z,125
2017-10-10T07:07:54.013Z,125
2017-10-10T07:08:54.622Z,120
2017-10-10T07:09:55.230Z,115
2017-10-10T07:10:55.847Z,120
2017-10-10T07:11:56.457Z,120
2017-10-10T07:12:57.072Z,115
2017-10-10T07:13:57.679Z,105
2017-10-10T07:14:58.292Z,115
2017-10-10T07:15:58.895Z,130
2017-10-10T07:16:59.510Z,165
2017-10-10T07:18:00.129Z,195
2017-10-10T07:19:00.739Z,210
2017-10-10T07:20:01.345Z,230
2017-10-10T07:21:01.961Z,255
2017-10-10T07:22:02.574Z,265
2017-10-10T07:23:03.184Z,275
2017-10-10T07:24:03.797Z,275
2017-10-10T07:25:04.413Z,275
2017-10-10T07:26:05.038Z,270
2017-10-10T07:27:06.136Z,275
2017-10-10T07:28:07.714Z,280
2017-10-10T07:29:08.328Z,270
2017-10-10T07:30:08.940Z,265
2017-10-10T07:31:09.553Z,285
2017-10-10T07:32:10.170Z,300
2017-10-10T07:33:10.790Z,295
2017-10-10T07:34:11.417Z,285
2017-10-10T07:35:12.019Z,255
2017-10-10T07:36:12.635Z,245
2017-10-10T07:37:13.239Z,240
2017-10-10T07:38:13.854Z,215
2017-10-10T07:39:14.464Z,175
2017-10-10T07:40:15.076Z,165
2017-10-10T07:41:15.687Z,145
2017-10-10T07:42:16.305Z,135
2017-10-10T07:43:16.917Z,135
2017-10-10T07:44:17.533Z,125
2017-10-10T07:45:18.150Z,105
2017-10-10T07:46:18.750Z,80
2017-10-10T07:47:19.363Z,75
2017-10-10T07:48:19.965Z,80
2017-10-10T07:49:20.583Z,100
2017-10-10T07:50:21.198Z,115
2017-10-10T07:51:21.814Z,115
2017-10-10T07:52:22.425Z,165
2017-10-10T07:53:23.041Z,205
2017-10-10T07:54:23.644Z,210
2017-10-10T07:55:24.252Z,225
2017-10-10T07:56:24.863Z,240
2017-10-10T07:57:25.475Z,310
2017-10-10T07:58:26.085Z,345
2017-10-10T07:59:26.706Z,380
2017-10-10T08:00:27.317Z,395
2017-10-10T08:01:27.925Z,360
2017-10-10T08:02:28.541Z,380
2017-10-10T08:03:29.166Z,440
2017-10-10T08:04:29.757Z,465
2017-10-10T08:05:30.380Z,435
2017-10-10T08:06:31.007Z,445
2017-10-10T08:07:31.626Z,475
2017-10-10T08:08:32.245Z,475
2017-10-10T08:09:32.862Z,455
2017-10-10T08:10:33.485Z,465
2017-10-10T08:11:34.102Z,485
2017-10-10T08:12:34.711Z,520
2017-10-10T08:13:35.323Z,535
2017-10-10T08:14:35.941Z,555
2017-10-10T08:15:36.549Z,550
2017-10-10T08:16:37.166Z,555
2017-10-10T08:17:37.789Z,510
2017-10-10T08:18:38.411Z,395
2017-10-10T08:19:39.028Z,340
2017-10-10T08:20:39.640Z,305
2017-10-10T08:21:40.256Z,305
2017-10-10T08:22:40.869Z,265
2017-10-10T08:23:41.489Z,310
2017-10-10T08:24:42.104Z,380
2017-10-10T08:25:42.715Z,435
2017-10-10T08:26:43.337Z,480
2017-10-10T08:27:43.956Z,435
2017-10-10T08:28:44.575Z,410
2017-10-10T08:29:45.196Z,395
2017-10-10T08:30:45.801Z,350
2017-10-10T08:31:46.410Z,330
2017-10-10T08:32:47.028Z,310
2017-10-10T08:33:47.659Z,295
2017-10-10T08:34:48.260Z,265
2017-10-10T08:35:48.882Z,255
2017-10-10T08:36:49.495Z,235
2017-10-10T08:37:50.116Z,250
2017-10-10T08:38:50.727Z,295
2017-10-10T08:39:51.347Z,320
2017-10-10T08:40:51.966Z,330
2017-10-10T08:41:52.593Z,295
2017-10-10T08:42:53.207Z,245
2017-10-10T08:43:53.820Z,195
2017-10-10T08:44:54.440Z,175
2017-10-10T08:45:55.073Z,165
2017-10-10T08:46:55.692Z,175
2017-10-10T08:47:56.305Z,185
2017-10-10T08:48:56.909Z,210
2017-10-10T08:49:57.562Z,250
2017-10-10T08:50:58.175Z,295
2017-10-10T08:51:58.795Z,315
2017-10-10T08:52:59.415Z,295
2017-10-10T08:54:00.021Z,285
2017-10-10T08:55:00.699Z,265
2017-10-10T08:56:01.311Z,280
2017-10-10T08:57:01.936Z,300
2017-10-10T08:58:02.558Z,310
2017-10-10T08:59:03.178Z,325
2017-10-10T09:00:03.795Z,350
2017-10-10T09:01:04.413Z,400
2017-10-10T09:02:05.033Z,425
2017-10-10T09:03:05.651Z,465
2017-10-10T09:04:06.257Z,470
2017-10-10T09:05:06.878Z,430
2017-10-10T09:06:07.494Z,395
2017-10-10T09:07:08.118Z,405
2017-10-10T09:08:08.739Z,415
2017-10-10T09:09:09.359Z,410
2017-10-10T09:10:09.965Z,420
2017-10-10T09:11:10.783Z,435
2017-10-10T09:12:11.404Z,465
2017-10-10T09:13:12.029Z,510
2017-10-10T09:14:12.638Z,585
2017-10-10T09:15:13.241Z,610
2017-10-10T09:16:13.863Z,640
2017-10-10T09:17:14.481Z,690
2017-10-10T09:18:15.094Z,760
2017-10-10T09:19:15.700Z,795
2017-10-10T09:20:16.307Z,765
2017-10-10T09:21:16.921Z,745
2017-10-10T09:22:17.545Z,765
2017-10-10T09:23:18.215Z,735
2017-10-10T09:24:18.787Z,700
2017-10-10T09:25:19.407Z,665
2017-10-10T09:26:20.022Z,695
2017-10-10T09:27:20.640Z,780
2017-10-10T09:28:21.258Z,835
2017-10-10T09:29:21.866Z,845
2017-10-10T09:30:22.485Z,795
2017-10-10T09:31:23.093Z,740
2017-10-10T09:32:23.704Z,690
2017-10-10T09:33:24.305Z,645
2017-10-10T09:34:24.920Z,580
2017-10-10T09:35:25.554Z,550
2017-10-10T09:36:26.197Z,565
2017-10-10T09:37:26.791Z,550
2017-10-10T09:38:27.407Z,625
2017-10-10T09:39:28.067Z,730
2017-10-10T09:40:28.713Z,810
2017-10-10T09:41:29.324Z,780
2017-10-10T09:42:29.963Z,690
2017-10-10T09:43:30.560Z,765
2017-10-10T09:44:31.178Z,855
2017-10-10T09:45:31.801Z,995
2017-10-10T09:46:32.422Z,1390
2017-10-10T09:47:33.031Z,1645
2017-10-10T09:48:33.676Z,1625
2017-10-10T09:49:34.407Z,2075
2017-10-10T09:50:35.021Z,1485
2017-10-10T09:51:35.642Z,1200
2017-10-10T09:52:36.270Z,1120
2017-10-10T09:53:36.889Z,985
2017-10-10T09:54:37.525Z,995
2017-10-10T09:55:38.132Z,995
2017-10-10T09:56:38.752Z,1050
2017-10-10T09:57:39.376Z,1345
2017-10-10T09:58:40.002Z,1665
2017-10-10T09:59:40.622Z,1205
2017-10-10T10:00:41.232Z,1125
2017-10-10T10:01:41.862Z,1685
2017-10-10T10:02:42.471Z,1035
2017-10-10T10:03:43.088Z,845
2017-10-10T10:04:43.720Z,1095
2017-10-10T10:05:44.342Z,800
2017-10-10T10:06:44.957Z,785
2017-10-10T10:07:45.589Z,760
2017-10-10T10:08:46.210Z,745
2017-10-10T10:09:46.824Z,720
2017-10-10T10:10:47.436Z,725
2017-10-10T10:11:48.065Z,745
2017-10-10T10:12:48.692Z,755
2017-10-10T10:13:49.532Z,755
2017-10-10T10:14:50.152Z,750
2017-10-10T10:15:50.771Z,835
2017-10-10T10:16:51.389Z,1105
2017-10-10T10:17:51.999Z,815
2017-10-10T10:18:52.618Z,885
2017-10-10T10:19:53.241Z,745
2017-10-10T10:20:53.860Z,960
2017-10-10T10:21:54.479Z,995
2017-10-10T10:22:55.095Z,1085
2017-10-10T10:23:55.720Z,745
2017-10-10T10:24:56.370Z,860
2017-10-10T10:25:56.966Z,820
2017-10-10T10:26:57.572Z,955
2017-10-10T10:27:58.196Z,910
2017-10-10T10:28:58.817Z,1005
2017-10-10T10:29:59.449Z,1110
2017-10-10T10:31:00.291Z,1005
2017-10-10T10:32:00.917Z,1015
2017-10-10T10:33:01.538Z,855
2017-10-10T10:34:02.164Z,730
2017-10-10T10:35:02.794Z,710
2017-10-10T10:36:03.416Z,820
2017-10-10T10:37:04.032Z,795
2017-10-10T10:38:04.647Z,840
2017-10-10T10:39:05.271Z,1085
2017-10-10T10:40:05.897Z,850
2017-10-10T10:41:06.526Z,790
2017-10-10T10:42:07.148Z,840
2017-10-10T10:43:07.760Z,875
2017-10-10T10:44:08.380Z,900
2017-10-10T10:45:08.995Z,1060
2017-10-10T10:46:09.621Z,1205
2017-10-10T10:47:10.252Z,1160
2017-10-10T10:48:10.851Z,1185
2017-10-10T10:49:11.466Z,950
2017-10-10T10:50:12.092Z,925
2017-10-10T10:51:12.711Z,895
2017-10-10T10:52:13.328Z,825
2017-10-10T10:53:13.939Z,765
2017-10-10T10:54:14.560Z,875
2017-10-10T10:55:15.183Z,1410
2017-10-10T10:56:15.796Z,1425
2017-10-10T10:57:16.411Z,1425
2017-10-10T10:58:17.035Z,1035
2017-10-10T10:59:17.647Z,1210
2017-10-10T11:00:18.274Z,1235
2017-10-10T11:01:18.901Z,1495
2017-10-10T11:02:19.514Z,1360
2017-10-10T11:03:20.136Z,1680
2017-10-10T11:04:20.750Z,1455
2017-10-10T11:05:21.372Z,1485
2017-10-10T11:06:21.998Z,1880
2017-10-10T11:07:22.626Z,2045
2017-10-10T11:08:23.239Z,1940
2017-10-10T11:09:23.862Z,2150
2017-10-10T11:10:24.490Z,2290
2017-10-10T11:11:25.124Z,1950
2017-10-10T11:12:25.733Z,1240
2017-10-10T11:13:26.356Z,2090
2017-10-10T11:14:26.975Z,2065
2017-10-10T11:15:27.601Z,1860
2017-10-10T11:16:28.215Z,1115
2017-10-10T11:17:28.847Z,1715
2017-10-10T11:18:29.474Z,860
2017-10-10T11:19:30.088Z,2180
2017-10-10T11:20:30.711Z,2510
2017-10-10T11:21:31.335Z,1895
2017-10-10T11:22:31.962Z,2570
2017-10-10T11:23:32.584Z,1310
2017-10-10T11:24:33.217Z,2220
2017-10-10T11:25:33.835Z,855
2017-10-10T11:26:34.444Z,700
2017-10-10T11:27:35.108Z,660
2017-10-10T11:28:35.727Z,675
2017-10-10T11:29:36.349Z,755
2017-10-10T11:30:36.964Z,900
2017-10-10T11:31:37.580Z,1170
2017-10-10T11:32:38.209Z,820
2017-10-10T11:33:38.831Z,665
2017-10-10T11:34:39.453Z,715
2017-10-10T11:35:40.076Z,715
2017-10-10T11:36:40.688Z,790
2017-10-10T11:37:41.314Z,900
2017-10-10T11:38:41.930Z,1445
2017-10-10T11:39:42.584Z,2450
2017-10-10T11:40:43.174Z,1255
2017-10-10T11:41:43.806Z,2370
2017-10-10T11:42:44.418Z,2195
2017-10-10T11:43:45.056Z,1630
2017-10-10T11:44:45.674Z,1075
2017-10-10T11:45:46.303Z,1675
2017-10-10T11:46:46.922Z,1630
2017-10-10T11:47:47.553Z,1000
2017-10-10T11:48:48.184Z,1300
2017-10-10T11:49:48.798Z,875
2017-10-10T11:50:49.418Z,1220
2017-10-10T11:51:50.043Z,2010
2017-10-10T11:52:50.663Z,970
2017-10-10T11:53:51.292Z,1080
2017-10-10T11:54:51.913Z,930
2017-10-10T11:55:52.537Z,1230
2017-10-10T11:56:53.167Z,990
2017-10-10T11:57:53.790Z,970
2017-10-10T11:58:54.419Z,835
2017-10-10T11:59:55.040Z,795
2017-10-10T12:00:55.661Z,970
2017-10-10T12:01:56.283Z,940
2017-10-10T12:02:56.899Z,860
2017-10-10T12:03:57.515Z,805
2017-10-10T12:04:58.123Z,820
2017-10-10T12:05:58.748Z,790
2017-10-10T12:06:59.365Z,805
2017-10-10T12:07:59.979Z,780
2017-10-10T12:09:00.602Z,705
2017-10-10T12:10:01.224Z,705
2017-10-10T12:11:01.847Z,765
2017-10-10T12:12:02.477Z,735
2017-10-10T12:13:03.104Z,730
2017-10-10T12:14:03.727Z,685
2017-10-10T12:15:04.346Z,625
2017-10-10T12:16:04.967Z,590
2017-10-10T12:17:05.590Z,565
2017-10-10T12:18:06.208Z,550
2017-10-10T12:19:06.820Z,545
2017-10-10T12:20:07.440Z,545
2017-10-10T12:21:08.064Z,545
2017-10-10T12:22:08.679Z,555
2017-10-10T12:23:09.299Z,565
2017-10-10T12:24:09.921Z,575
2017-10-10T12:25:10.542Z,575
2017-10-10T12:26:11.162Z,570
2017-10-10T12:27:11.788Z,575
2017-10-10T12:28:12.413Z,600
2017-10-10T12:29:13.035Z,630
2017-10-10T12:30:13.657Z,660
2017-10-10T12:31:14.276Z,680
2017-10-10T12:32:14.895Z,680
2017-10-10T12:33:15.519Z,650
2017-10-10T12:34:16.130Z,630
2017-10-10T12:35:16.750Z,575
2017-10-10T12:36:17.370Z,535
2017-10-10T12:37:17.996Z,565
2017-10-10T12:38:18.624Z,565
2017-10-10T12:39:19.246Z,560
2017-10-10T12:40:19.862Z,545
2017-10-10T12:41:20.476Z,530
2017-10-10T12:42:21.090Z,505
2017-10-10T12:43:21.712Z,490
2017-10-10T12:44:22.333Z,430
2017-10-10T12:45:22.953Z,315
2017-10-10T12:46:23.568Z,255
2017-10-10T12:47:24.191Z,220
2017-10-10T12:48:24.812Z,245
2017-10-10T12:49:25.414Z,310
2017-10-10T12:50:26.034Z,335
2017-10-10T12:51:26.655Z,380
2017-10-10T12:52:27.277Z,380
2017-10-10T12:53:27.891Z,405
2017-10-10T12:54:28.520Z,500
2017-10-10T12:55:29.118Z,460
2017-10-10T12:56:29.735Z,480
2017-10-10T12:57:30.346Z,615
2017-10-10T12:58:30.961Z,615
2017-10-10T12:59:31.580Z,580
2017-10-10T13:00:32.196Z,535
2017-10-10T13:01:32.816Z,505
2017-10-10T13:02:33.422Z,445
2017-10-10T13:03:34.047Z,415
2017-10-10T13:04:34.667Z,465
2017-10-10T13:05:35.292Z,530
2017-10-10T13:06:35.900Z,640
2017-10-10T13:07:36.513Z,705
2017-10-10T13:08:37.128Z,830
2017-10-10T13:09:37.755Z,860
2017-10-10T13:10:38.381Z,870
2017-10-10T13:11:38.992Z,790
2017-10-10T13:12:39.610Z,670
2017-10-10T13:13:40.231Z,570
2017-10-10T13:14:40.851Z,440
2017-10-10T13:15:41.466Z,390
2017-10-10T13:16:42.077Z,355
2017-10-10T13:17:42.693Z,285
2017-10-10T13:18:43.315Z,235
2017-10-10T13:19:43.932Z,205
2017-10-10T13:20:44.548Z,210
2017-10-10T13:21:45.164Z,220
2017-10-10T13:22:45.789Z,225
2017-10-10T13:23:46.395Z,285
2017-10-10T13:24:47.002Z,285
2017-10-10T13:25:47.618Z,295
2017-10-10T13:26:48.251Z,290
2017-10-10T13:27:48.848Z,325
2017-10-10T13:28:49.465Z,370
2017-10-10T13:29:50.081Z,470
2017-10-10T13:30:50.706Z,610
2017-10-10T13:31:51.319Z,695
2017-10-10T13:32:51.936Z,675
2017-10-10T13:33:52.553Z,695
2017-10-10T13:34:53.157Z,715
2017-10-10T13:35:53.776Z,630
2017-10-10T13:36:54.383Z,650
2017-10-10T13:37:55.005Z,615
2017-10-10T13:38:55.613Z,505
2017-10-10T13:39:56.228Z,510
2017-10-10T13:40:56.836Z,655
2017-10-10T13:41:57.450Z,645
2017-10-10T13:42:58.069Z,490
2017-10-10T13:43:58.689Z,875
2017-10-10T13:44:59.303Z,780
2017-10-10T13:45:59.913Z,775
2017-10-10T13:47:00.533Z,790
2017-10-10T13:48:01.145Z,810
2017-10-10T13:49:01.758Z,720
2017-10-10T13:50:02.381Z,715
2017-10-10T13:51:02.994Z,615
2017-10-10T13:52:03.613Z,670
2017-10-10T13:53:04.233Z,685
2017-10-10T13:54:04.846Z,680
2017-10-10T13:55:05.469Z,630
2017-10-10T13:56:06.085Z,1140
2017-10-10T13:57:06.703Z,1180
2017-10-10T13:58:07.326Z,905
2017-10-10T13:59:07.935Z,840
2017-10-10T14:00:08.554Z,865
2017-10-10T14:01:09.169Z,760
2017-10-10T14:02:09.780Z,620
2017-10-10T14:03:10.402Z,605
2017-10-10T14:04:11.019Z,515
2017-10-10T14:05:11.639Z,475
2017-10-10T14:06:12.255Z,485
2017-10-10T14:07:12.884Z,500
2017-10-10T14:08:13.497Z,470
2017-10-10T14:09:14.106Z,440
2017-10-10T14:10:14.714Z,410
2017-10-10T14:11:15.333Z,480
2017-10-10T14:12:15.950Z,495
2017-10-10T14:13:16.557Z,465
2017-10-10T14:14:17.174Z,480
2017-10-10T14:15:17.800Z,500
2017-10-10T14:16:18.419Z,470
2017-10-10T14:17:19.023Z,520
2017-10-10T14:18:19.647Z,660
2017-10-10T14:19:20.260Z,650
2017-10-10T14:20:20.890Z,560